createdAt,value
2018-09-13T00:02:10.281Z,17.00
2018-09-13T00:04:39.103Z,17.00
2018-09-13T00:07:07.393Z,17.00
2018-09-13T00:09:35.681Z,16.90
2018-09-13T00:12:03.998Z,16.90
2018-09-13T00:14:32.294Z,16.80
2018-09-13T00:17:00.594Z,16.80
2018-09-13T00:19:28.848Z,16.70
2018-09-13T00:21:57.210Z,16.60
2018-09-13T00:24:25.456Z,16.60
2018-09-13T00:26:53.720Z,16.50
2018-09-13T00:29:22.028Z,16.50
2018-09-13T00:31:50.284Z,16.50
2018-09-13T00:34:18.588Z,16.40
2018-09-13T00:36:46.957Z,16.40
2018-09-13T00:39:15.204Z,16.30
2018-09-13T00:41:43.519Z,16.30
2018-09-13T00:44:11.926Z,16.30
2018-09-13T00:46:40.204Z,16.30
2018-09-13T00:49:08.436Z,16.30
2018-09-13T00:51:36.715Z,16.30
2018-09-13T00:54:05.013Z,16.20
2018-09-13T00:56:33.323Z,16.20
2018-09-13T00:59:01.649Z,16.20
2018-09-13T01:01:30.974Z,16.20
2018-09-13T01:03:59.215Z,16.20
2018-09-13T01:06:27.498Z,16.10
2018-09-13T01:08:55.747Z,16.10
2018-09-13T01:11:24.017Z,16.10
2018-09-13T01:13:52.312Z,16.00
2018-09-13T01:16:20.619Z,16.00
2018-09-13T01:18:48.883Z,15.90
2018-09-13T01:21:17.168Z,15.90
2018-09-13T01:23:45.441Z,15.70
2018-09-13T01:26:13.716Z,15.60
2018-09-13T01:28:42.963Z,15.60
2018-09-13T01:31:11.234Z,15.50
2018-09-13T01:33:39.497Z,15.40
2018-09-13T01:36:08.675Z,15.40
2018-09-13T01:38:36.984Z,15.30
2018-09-13T01:41:06.333Z,15.30
2018-09-13T01:43:34.620Z,15.20
2018-09-13T01:46:02.887Z,15.10
2018-09-13T01:48:31.136Z,15.10
2018-09-13T01:50:59.396Z,15.00
2018-09-13T01:53:27.694Z,14.90
2018-09-13T01:55:55.965Z,14.80
2018-09-13T01:58:24.216Z,14.80
2018-09-13T02:00:52.515Z,14.80
2018-09-13T02:03:20.775Z,14.80
2018-09-13T02:05:49.069Z,14.70
2018-09-13T02:08:17.322Z,14.70
2018-09-13T02:10:45.568Z,14.70
2018-09-13T02:13:13.972Z,14.70
2018-09-13T02:15:42.247Z,14.70
2018-09-13T02:18:10.735Z,14.70
2018-09-13T02:20:39.966Z,14.70
2018-09-13T02:23:08.310Z,14.70
2018-09-13T02:25:36.601Z,14.70
2018-09-13T02:28:04.987Z,14.70
2018-09-13T02:30:33.292Z,14.70
2018-09-13T02:33:01.614Z,14.70
2018-09-13T02:35:29.893Z,14.60
2018-09-13T02:37:58.208Z,14.60
2018-09-13T02:40:26.466Z,14.60
2018-09-13T02:42:54.729Z,14.60
2018-09-13T02:45:23.003Z,14.60
2018-09-13T02:47:51.261Z,14.50
2018-09-13T02:50:19.564Z,14.60
2018-09-13T02:52:47.811Z,14.50
2018-09-13T02:55:16.063Z,14.50
2018-09-13T02:57:44.340Z,14.50
2018-09-13T03:00:12.612Z,14.50
2018-09-13T03:02:40.868Z,14.50
2018-09-13T03:05:09.206Z,14.50
2018-09-13T03:07:37.550Z,14.50
2018-09-13T03:10:05.811Z,14.50
2018-09-13T03:12:34.094Z,14.40
2018-09-13T03:15:02.349Z,14.40
2018-09-13T03:17:30.660Z,14.40
2018-09-13T03:19:58.929Z,14.50
2018-09-13T03:22:27.234Z,14.50
2018-09-13T03:24:55.577Z,14.50
2018-09-13T03:27:24.007Z,14.50
2018-09-13T03:29:52.343Z,14.50
2018-09-13T03:32:20.649Z,14.50
2018-09-13T03:34:49.052Z,14.50
2018-09-13T03:37:17.425Z,14.50
2018-09-13T03:39:45.695Z,14.60
2018-09-13T03:42:14.020Z,14.60
2018-09-13T03:44:42.276Z,14.60
2018-09-13T03:47:11.512Z,14.60
2018-09-13T03:49:39.823Z,14.60
2018-09-13T03:52:08.197Z,14.60
2018-09-13T03:54:36.633Z,14.60
2018-09-13T03:57:05.107Z,14.60
2018-09-13T03:59:33.396Z,14.60
2018-09-13T04:02:01.749Z,14.60
2018-09-13T04:04:30.016Z,14.60
2018-09-13T04:06:58.318Z,14.60
2018-09-13T04:09:26.699Z,14.60
2018-09-13T04:11:55.063Z,14.60
2018-09-13T04:14:23.396Z,14.60
2018-09-13T04:16:51.683Z,14.60
2018-09-13T04:19:20.087Z,14.60
2018-09-13T04:21:48.386Z,14.60
2018-09-13T04:24:16.727Z,14.60
2018-09-13T04:26:51.959Z,14.60
2018-09-13T04:29:20.262Z,14.60
2018-09-13T04:32:00.101Z,14.60
2018-09-13T04:34:28.396Z,14.60
2018-09-13T04:36:56.669Z,14.60
2018-09-13T04:39:25.262Z,14.60
2018-09-13T04:41:53.621Z,14.60
2018-09-13T04:44:21.943Z,14.60
2018-09-13T04:46:50.267Z,14.60
2018-09-13T04:49:18.594Z,14.60
2018-09-13T04:51:48.049Z,14.60
2018-09-13T04:54:16.369Z,14.60
2018-09-13T04:56:44.849Z,14.60
2018-09-13T04:59:13.240Z,14.60
2018-09-13T05:01:42.537Z,14.60
2018-09-13T05:04:11.510Z,14.60
2018-09-13T05:06:41.120Z,14.60
2018-09-13T05:09:11.321Z,14.60
2018-09-13T05:11:40.359Z,14.60
2018-09-13T05:14:11.058Z,14.60
2018-09-13T05:16:39.470Z,14.60
2018-09-13T05:19:08.025Z,14.60
2018-09-13T05:21:36.343Z,14.60
2018-09-13T05:24:05.696Z,14.60
2018-09-13T05:26:34.067Z,14.60
2018-09-13T05:29:02.441Z,14.60
2018-09-13T05:31:31.219Z,14.60
2018-09-13T05:33:59.706Z,14.70
2018-09-13T05:36:31.549Z,14.70
2018-09-13T05:38:59.807Z,14.70
2018-09-13T05:41:28.265Z,14.70
2018-09-13T05:43:57.153Z,14.80
2018-09-13T05:46:25.946Z,14.80
2018-09-13T05:48:54.366Z,14.90
2018-09-13T05:51:22.774Z,14.90
2018-09-13T05:53:51.468Z,14.90
2018-09-13T05:56:19.942Z,15.00
2018-09-13T05:58:48.548Z,15.00
2018-09-13T06:01:17.021Z,15.10
2018-09-13T06:03:45.573Z,15.10
2018-09-13T06:06:13.967Z,15.20
2018-09-13T06:08:42.648Z,15.20
2018-09-13T06:11:11.368Z,15.20
2018-09-13T06:13:40.158Z,15.30
2018-09-13T06:16:08.587Z,15.40
2018-09-13T06:18:37.165Z,15.40
2018-09-13T06:21:05.674Z,15.50
2018-09-13T06:23:34.151Z,15.60
2018-09-13T06:26:02.687Z,15.60
2018-09-13T06:28:34.505Z,15.60
2018-09-13T06:31:03.124Z,15.70
2018-09-13T06:33:32.524Z,15.70
2018-09-13T06:36:01.088Z,15.80
2018-09-13T06:38:29.580Z,15.80
2018-09-13T06:40:58.257Z,15.90
2018-09-13T06:43:27.503Z,16.00
2018-09-13T06:45:56.022Z,16.00
2018-09-13T06:48:28.173Z,16.10
2018-09-13T06:50:56.535Z,16.00
2018-09-13T06:53:27.581Z,16.10
2018-09-13T06:55:59.860Z,16.10
2018-09-13T06:58:28.365Z,16.20
2018-09-13T07:01:07.228Z,16.20
2018-09-13T07:03:35.889Z,16.20
2018-09-13T07:06:04.185Z,16.10
2018-09-13T07:08:32.449Z,16.20
2018-09-13T07:11:01.055Z,16.20
2018-09-13T07:13:29.426Z,16.30
2018-09-13T07:15:57.730Z,16.30
2018-09-13T07:18:26.186Z,16.30
2018-09-13T07:20:54.546Z,16.20
2018-09-13T07:23:23.480Z,16.30
2018-09-13T07:25:51.837Z,16.30
2018-09-13T07:28:20.594Z,16.30
2018-09-13T07:30:49.218Z,16.30
2018-09-13T07:33:18.430Z,16.40
2018-09-13T07:35:47.382Z,16.40
2018-09-13T07:38:15.956Z,16.50
2018-09-13T07:40:44.579Z,16.60
2018-09-13T07:43:13.808Z,16.80
2018-09-13T07:45:43.009Z,16.90
2018-09-13T07:48:12.573Z,17.00
2018-09-13T07:50:42.165Z,17.20
2018-09-13T07:53:10.995Z,17.30
2018-09-13T07:55:39.652Z,17.30
2018-09-13T07:58:07.937Z,17.40
2018-09-13T08:00:36.541Z,17.30
2018-09-13T08:03:05.785Z,17.40
2018-09-13T08:05:34.382Z,17.60
2018-09-13T08:08:02.905Z,17.70
2018-09-13T08:10:31.309Z,18.00
2018-09-13T08:13:00.118Z,18.10
2018-09-13T08:15:28.502Z,18.30
2018-09-13T08:17:56.924Z,18.40
2018-09-13T08:20:25.517Z,18.30
2018-09-13T08:23:00.271Z,18.20
2018-09-13T08:25:28.667Z,18.20
2018-09-13T08:27:57.149Z,18.30
2018-09-13T08:30:32.408Z,18.30
2018-09-13T08:33:01.593Z,18.40
2018-09-13T08:35:30.018Z,18.50
2018-09-13T08:37:58.461Z,18.50
2018-09-13T08:40:27.802Z,18.50
2018-09-13T08:42:56.500Z,18.50
2018-09-13T08:45:24.984Z,18.60
2018-09-13T08:47:53.618Z,18.70
2018-09-13T08:50:23.480Z,18.70
2018-09-13T08:52:51.788Z,18.60
2018-09-13T08:55:20.334Z,18.50
2018-09-13T08:57:48.763Z,18.50
2018-09-13T09:00:17.354Z,18.50
2018-09-13T09:02:46.356Z,18.50
2018-09-13T09:05:15.041Z,18.70
2018-09-13T09:07:43.592Z,18.80
2018-09-13T09:10:13.293Z,18.90
2018-09-13T09:12:43.060Z,19.00
2018-09-13T09:15:12.425Z,19.20
2018-09-13T09:17:41.835Z,19.20
2018-09-13T09:20:11.878Z,19.20
2018-09-13T09:22:43.030Z,19.20
2018-09-13T09:25:12.927Z,19.20
2018-09-13T09:27:42.128Z,19.20
2018-09-13T09:30:11.485Z,19.30
2018-09-13T09:32:40.495Z,19.30
2018-09-13T09:35:11.634Z,19.20
2018-09-13T09:37:41.028Z,19.10
2018-09-13T09:40:10.419Z,19.20
2018-09-13T09:42:38.794Z,19.30
2018-09-13T09:45:09.278Z,19.30
2018-09-13T09:47:38.101Z,19.40
2018-09-13T09:50:06.999Z,19.50
2018-09-13T09:52:36.870Z,19.50
2018-09-13T09:55:10.430Z,19.70
2018-09-13T09:57:38.853Z,20.00
2018-09-13T10:00:07.161Z,20.30
2018-09-13T10:02:35.539Z,20.40
2018-09-13T10:05:06.945Z,20.40
2018-09-13T10:07:35.810Z,20.60
2018-09-13T10:10:04.306Z,20.70
2018-09-13T10:12:32.552Z,20.60
2018-09-13T10:15:06.260Z,20.50
2018-09-13T10:17:43.594Z,20.60
2018-09-13T10:20:17.569Z,20.70
2018-09-13T10:22:51.319Z,20.50
2018-09-13T10:25:24.952Z,20.60
2018-09-13T10:27:58.684Z,20.50
2018-09-13T10:30:32.400Z,20.40
2018-09-13T10:33:06.173Z,20.40
2018-09-13T10:35:39.910Z,20.40
2018-09-13T10:38:14.196Z,20.50
2018-09-13T10:40:48.047Z,20.50
2018-09-13T10:44:23.666Z,20.50
2018-09-13T10:46:58.260Z,20.50
2018-09-13T10:49:32.134Z,20.70
2018-09-13T10:52:09.638Z,20.80
2018-09-13T10:54:40.305Z,20.90
2018-09-13T10:57:14.236Z,21.10
2018-09-13T10:59:43.693Z,21.10
2018-09-13T11:02:15.036Z,21.20
2018-09-13T11:04:47.152Z,21.30
2018-09-13T11:07:16.589Z,21.20
2018-09-13T11:09:47.612Z,21.20
2018-09-13T11:12:23.112Z,21.00
2018-09-13T11:14:54.077Z,20.90
2018-09-13T11:17:24.335Z,20.80
2018-09-13T11:22:35.777Z,20.80
2018-09-13T11:25:08.817Z,20.80
2018-09-13T11:27:38.306Z,20.70
2018-09-13T11:30:08.198Z,20.60
2018-09-13T11:33:00.112Z,20.70
2018-09-13T11:35:29.307Z,20.80
2018-09-13T11:37:58.365Z,20.80
2018-09-13T11:40:32.816Z,20.80
2018-09-13T11:43:02.566Z,20.90
2018-09-13T11:45:31.286Z,20.90
2018-09-13T11:48:00.160Z,20.90
2018-09-13T11:50:28.952Z,21.00
2018-09-13T11:52:57.829Z,21.10
2018-09-13T11:55:28.438Z,21.10
2018-09-13T11:57:56.909Z,21.10
2018-09-13T12:00:26.150Z,21.20
2018-09-13T12:02:54.688Z,21.10
2018-09-13T12:05:23.183Z,21.10
2018-09-13T12:07:52.254Z,21.10
2018-09-13T12:10:20.380Z,21.20
2018-09-13T12:12:48.835Z,21.10
2018-09-13T12:15:17.323Z,21.10
2018-09-13T12:23:01.332Z,20.80
2018-09-13T12:28:06.679Z,20.70
2018-09-13T12:30:48.143Z,20.80
2018-09-13T12:33:30.278Z,20.70
2018-09-13T12:35:58.606Z,20.70
2018-09-13T12:41:04.172Z,20.70
2018-09-13T12:46:14.005Z,20.80
2018-09-13T12:48:42.748Z,20.80
2018-09-13T12:51:11.162Z,20.80
2018-09-13T12:53:39.977Z,20.80
2018-09-13T12:56:08.353Z,20.70
2018-09-13T13:03:57.629Z,20.30
2018-09-13T13:06:41.839Z,20.30
2018-09-13T13:09:14.713Z,20.20
2018-09-13T13:14:32.552Z,19.90
2018-09-13T13:17:05.848Z,19.80
2018-09-13T13:19:34.350Z,19.70
2018-09-13T13:22:13.127Z,19.70
2018-09-13T13:27:23.500Z,19.70
2018-09-13T13:29:51.944Z,19.60
2018-09-13T13:32:20.328Z,19.50
2018-09-13T13:35:02.068Z,19.40
2018-09-13T13:37:30.737Z,19.40
2018-09-13T13:40:08.095Z,19.30
2018-09-13T13:45:38.191Z,19.00
2018-09-13T14:13:03.464Z,19.30
2018-09-13T14:15:40.764Z,19.30
2018-09-13T14:18:13.533Z,19.30
2018-09-13T14:20:42.162Z,19.30
2018-09-13T14:26:01.737Z,19.40
2018-09-13T14:42:21.465Z,19.30
2018-09-13T14:44:49.969Z,19.30
2018-09-13T14:47:18.381Z,19.20
2018-09-13T14:49:46.849Z,19.10
2018-09-13T14:52:15.221Z,19.10
2018-09-13T14:54:43.591Z,19.00
2018-09-13T14:57:11.957Z,19.00
2018-09-13T14:59:40.269Z,19.00
2018-09-13T15:02:08.586Z,19.10
2018-09-13T15:04:36.970Z,19.00
2018-09-13T15:07:05.485Z,19.00
2018-09-13T15:09:33.782Z,19.00
2018-09-13T15:12:02.203Z,19.00
2018-09-13T15:14:30.559Z,19.00
2018-09-13T15:16:58.961Z,18.90
2018-09-13T15:19:27.455Z,18.90
2018-09-13T15:21:56.076Z,18.90
2018-09-13T15:24:24.455Z,19.00
2018-09-13T15:26:52.815Z,19.00
2018-09-13T15:29:21.337Z,19.00
2018-09-13T15:31:49.710Z,19.00
2018-09-13T15:34:18.189Z,19.00
2018-09-13T15:36:46.527Z,19.00
2018-09-13T15:39:14.948Z,19.10
2018-09-13T15:41:43.399Z,19.00
2018-09-13T15:44:11.748Z,19.00
2018-09-13T15:46:40.135Z,19.00
2018-09-13T15:49:08.790Z,19.00
2018-09-13T15:51:37.527Z,19.00
2018-09-13T15:54:06.030Z,19.10
2018-09-13T15:56:34.476Z,19.10
2018-09-13T15:59:02.774Z,19.20
2018-09-13T16:01:31.127Z,19.20
2018-09-13T16:03:59.456Z,19.20
2018-09-13T16:06:27.920Z,19.30
2018-09-13T16:08:56.267Z,19.30
2018-09-13T16:11:25.049Z,19.30
2018-09-13T16:13:53.505Z,19.30
2018-09-13T16:16:21.891Z,19.30
2018-09-13T16:18:50.225Z,19.30
2018-09-13T16:21:18.622Z,19.30
2018-09-13T16:23:46.869Z,19.30
2018-09-13T16:26:15.370Z,19.20
2018-09-13T16:28:43.649Z,19.20
2018-09-13T16:31:12.076Z,19.10
2018-09-13T16:33:40.446Z,19.10
2018-09-13T16:36:14.264Z,19.00
2018-09-13T16:38:48.062Z,18.90
2018-09-13T16:41:21.739Z,18.70
2018-09-13T16:43:55.390Z,18.60
2018-09-13T16:46:29.099Z,18.60
2018-09-13T16:48:57.346Z,18.60
2018-09-13T16:51:25.690Z,18.50
2018-09-13T16:53:54.096Z,18.40
2018-09-13T16:56:22.460Z,18.40
2018-09-13T16:58:50.870Z,18.30
2018-09-13T17:01:19.395Z,18.30
2018-09-13T17:03:47.786Z,18.30
2018-09-13T17:06:16.289Z,18.30
2018-09-13T17:08:44.624Z,18.20
2018-09-13T17:11:13.374Z,18.20
2018-09-13T17:13:41.834Z,18.20
2018-09-13T17:16:10.320Z,18.30
2018-09-13T17:18:38.615Z,18.30
2018-09-13T17:21:07.181Z,18.30
2018-09-13T17:23:41.581Z,18.30
2018-09-13T17:26:24.513Z,18.30
2018-09-13T17:29:06.224Z,18.20
2018-09-13T17:31:40.123Z,18.20
2018-09-13T17:34:19.176Z,18.20
2018-09-13T17:36:54.505Z,18.20
2018-09-13T17:39:23.279Z,18.20
2018-09-13T17:41:51.841Z,18.20
2018-09-13T17:44:20.392Z,18.20
2018-09-13T17:46:49.022Z,18.10
2018-09-13T17:49:17.506Z,18.10
2018-09-13T17:51:45.956Z,18.00
2018-09-13T17:54:14.476Z,18.00
2018-09-13T17:56:42.968Z,18.00
2018-09-13T17:59:11.453Z,18.00
2018-09-13T18:04:35.689Z,18.00
2018-09-13T18:07:04.081Z,18.00
2018-09-13T18:09:32.594Z,17.90
2018-09-13T18:12:01.201Z,17.80
2018-09-13T18:14:30.124Z,17.70
2018-09-13T18:17:00.716Z,17.60
2018-09-13T18:19:29.556Z,17.30
2018-09-13T18:21:58.300Z,17.20
2018-09-13T18:24:26.903Z,17.10
2018-09-13T18:26:55.441Z,17.00
2018-09-13T18:29:23.828Z,16.90
2018-09-13T18:31:52.256Z,16.90
2018-09-13T18:34:20.795Z,16.80
2018-09-13T18:36:49.502Z,16.80
2018-09-13T18:39:18.005Z,16.80
2018-09-13T18:41:46.620Z,16.80
2018-09-13T18:44:15.015Z,16.70
2018-09-13T18:46:43.293Z,16.70
2018-09-13T18:49:11.967Z,16.70
2018-09-13T18:51:40.549Z,16.70
2018-09-13T18:54:08.901Z,16.70
2018-09-13T18:56:55.320Z,16.70
2018-09-13T18:59:23.830Z,16.70
2018-09-13T19:01:52.259Z,16.70
2018-09-13T19:04:20.725Z,16.70
2018-09-13T19:06:49.338Z,16.70
2018-09-13T19:09:17.697Z,16.70
2018-09-13T19:11:46.137Z,16.70
2018-09-13T19:14:14.624Z,16.70
2018-09-13T19:16:43.092Z,16.70
2018-09-13T19:19:12.150Z,16.60
2018-09-13T19:21:40.635Z,16.60
2018-09-13T19:24:09.313Z,16.60
2018-09-13T19:26:37.742Z,16.60
2018-09-13T19:29:06.160Z,16.60
2018-09-13T19:31:34.596Z,16.60
2018-09-13T19:34:03.159Z,16.60
2018-09-13T19:36:31.644Z,16.60
2018-09-13T19:39:00.148Z,16.50
2018-09-13T19:41:28.501Z,16.60
2018-09-13T19:43:56.980Z,16.50
2018-09-13T19:46:43.843Z,16.60
2018-09-13T19:49:12.294Z,16.60
2018-09-13T19:51:40.803Z,16.60
2018-09-13T19:54:09.116Z,16.60
2018-09-13T19:56:37.633Z,16.60
2018-09-13T19:59:06.567Z,16.60
2018-09-13T20:01:35.194Z,16.50
2018-09-13T20:04:05.824Z,16.50
2018-09-13T20:06:34.809Z,16.50
2018-09-13T20:09:03.495Z,16.50
2018-09-13T20:11:33.385Z,16.40
2018-09-13T20:14:03.241Z,16.30
2018-09-13T20:16:31.703Z,16.30
2018-09-13T20:19:01.388Z,16.30
2018-09-13T20:21:29.934Z,16.30
2018-09-13T20:23:58.448Z,16.20
2018-09-13T20:26:28.334Z,16.20
2018-09-13T20:28:56.749Z,16.10
2018-09-13T20:31:25.272Z,16.10
2018-09-13T20:33:53.761Z,16.10
2018-09-13T20:36:22.197Z,16.10
2018-09-13T20:38:50.603Z,16.00
2018-09-13T20:41:19.049Z,16.00
2018-09-13T20:43:47.485Z,16.00
2018-09-13T20:46:15.872Z,16.00
2018-09-13T20:48:44.465Z,16.00
2018-09-13T20:51:13.220Z,16.00
2018-09-13T20:53:41.737Z,16.00
2018-09-13T20:56:12.433Z,15.90
2018-09-13T20:58:42.662Z,15.80
2018-09-13T21:01:17.761Z,15.80
2018-09-13T21:03:56.476Z,15.80
2018-09-13T21:06:25.394Z,15.70
2018-09-13T21:08:56.197Z,15.70
2018-09-13T21:11:26.741Z,15.60
2018-09-13T21:13:55.531Z,15.50
2018-09-13T21:16:24.329Z,15.50
2018-09-13T21:18:54.039Z,15.50
2018-09-13T21:21:23.088Z,15.40
2018-09-13T21:23:52.085Z,15.40
2018-09-13T21:26:21.462Z,15.40
2018-09-13T21:29:00.889Z,15.40
2018-09-13T21:31:29.829Z,15.30
2018-09-13T21:33:59.487Z,15.30
2018-09-13T21:36:28.901Z,15.20
2018-09-13T21:38:57.392Z,15.20
2018-09-13T21:41:25.840Z,15.20
2018-09-13T21:43:54.489Z,15.20
2018-09-13T21:46:26.156Z,15.20
2018-09-13T21:48:54.897Z,15.10
2018-09-13T21:51:23.719Z,15.10
2018-09-13T21:53:52.372Z,15.10
2018-09-13T21:56:20.857Z,15.10
2018-09-13T21:58:49.512Z,15.10
2018-09-13T22:01:18.014Z,15.10
2018-09-13T22:03:46.748Z,15.10
2018-09-13T22:06:15.430Z,15.10
2018-09-13T22:08:44.503Z,15.10
2018-09-13T22:11:14.672Z,15.10
2018-09-13T22:13:43.310Z,15.10
2018-09-13T22:16:12.074Z,15.20
2018-09-13T22:18:40.879Z,15.20
2018-09-13T22:21:19.091Z,15.20
2018-09-13T22:23:52.959Z,15.20
2018-09-13T22:26:21.496Z,15.20
2018-09-13T22:28:49.992Z,15.20
2018-09-13T22:31:29.536Z,15.20
2018-09-13T22:33:58.118Z,15.20
2018-09-13T22:36:26.804Z,15.20
2018-09-13T22:38:55.329Z,15.20
2018-09-13T22:41:23.887Z,15.10
2018-09-13T22:44:10.480Z,15.20
2018-09-13T22:46:38.900Z,15.10
2018-09-13T22:49:07.589Z,15.10
2018-09-13T22:51:36.071Z,15.10
2018-09-13T22:54:04.558Z,15.20
2018-09-13T22:56:33.004Z,15.10
2018-09-13T22:59:01.499Z,15.10
2018-09-13T23:01:30.045Z,15.10
2018-09-13T23:04:07.899Z,15.10
2018-09-13T23:06:36.592Z,15.10
2018-09-13T23:09:08.357Z,15.10
2018-09-13T23:11:37.057Z,15.10
2018-09-13T23:14:05.596Z,15.10
2018-09-13T23:16:34.463Z,15.10
2018-09-13T23:19:03.014Z,15.10
2018-09-13T23:21:31.448Z,15.10
2018-09-13T23:24:00.105Z,15.10
2018-09-13T23:26:28.460Z,15.10
2018-09-13T23:28:57.337Z,15.10
2018-09-13T23:31:25.756Z,15.00
2018-09-13T23:33:54.416Z,15.00
2018-09-13T23:36:22.967Z,15.00
2018-09-13T23:38:51.438Z,15.00
2018-09-13T23:41:19.925Z,15.00
2018-09-13T23:43:48.329Z,15.00
2018-09-13T23:46:16.851Z,15.00
2018-09-13T23:48:45.806Z,15.00
2018-09-13T23:51:14.273Z,15.00
2018-09-13T23:53:42.885Z,15.00
2018-09-13T23:56:11.331Z,15.00
2018-09-13T23:58:40.093Z,14.90
